This is the latest recevied weather packets stored in our database for station/object LRSB. If no packets are shown the sender has not sent any weather packets the latest 10 day(s).
| Time | Temp. | Humidity | Pressure | Rain* | Wind** | Luminosity | Snow |
|---|---|---|---|---|---|---|---|
| 1777693766 | 3.89° C | 81% | 1022 hPa | - | - | - | - |
| 1777692791 | 3.89° C | 81% | 1022 hPa | - | - | - | - |
| 1777691891 | 5° C | 70% | 1022 hPa | - | - | - | - |
| 1777690991 | 5° C | 70% | 1022 hPa | - | - | - | - |
| 1777690091 | 5° C | 70% | 1022 hPa | - | - | - | - |
| 1777689191 | 5° C | 70% | 1022 hPa | - | - | - | - |
| 1777688292 | 5° C | 66% | 1022 hPa | - | - | - | - |
| 1777687391 | 5° C | 66% | 1022 hPa | - | - | - | - |
| 1777686491 | 5° C | 66% | 1022 hPa | - | - | - | - |
| 1777685591 | 5° C | 66% | 1022 hPa | - | - | - | - |
| 1777684692 | 2.78° C | 81% | 1022 hPa | - | - | - | - |
| 1777683791 | 2.78° C | 81% | 1022 hPa | - | - | - | - |
| 1777682891 | 5° C | 70% | 1022 hPa | - | - | - | - |
| 1777681991 | 5° C | 70% | 1022 hPa | - | - | - | - |
| 1777681091 | 6.11° C | 66% | 1023 hPa | - | - | - | - |
| 1777680191 | 6.11° C | 66% | 1023 hPa | - | - | - | - |
| 1777679301 | 6.11° C | 61% | 1023 hPa | - | - | - | - |
| 1777678392 | 6.11° C | 61% | 1023 hPa | - | - | - | - |
| 1777677491 | 6.11° C | 57% | 1023 hPa | - | - | - | - |
| 1777676592 | 6.11° C | 57% | 1023 hPa | - | - | - | - |
| 1777675691 | 6.11° C | 61% | 1023 hPa | - | - | - | - |
| 1777674791 | 6.11° C | 61% | 1023 hPa | - | - | - | - |
| 1777673891 | 7.22° C | 57% | 1023 hPa | - | - | - | - |
| 1777672991 | 7.22° C | 57% | 1023 hPa | - | - | - | - |
| 1777672091 | 7.22° C | 57% | 1023 hPa | - | - | - | - |
* Rain since midnight (hover to see other rain measurements)
** Current wind speed in m/s (hover to see current wind gust speed)